Alma, Alabama
Current Conditions -  °F | °C
As of 10:53 PM on Friday 28 Nov 2014 (Local Time) from KGZH Reporting Station
Clear Clear  
Wind Chill: 34°   Ceiling: Unl
Heat Index: 34°   Visibility: 10mi
Dew Point: 31°   Wind: 0mph
Humidity: 89%   Direction: NA
Pressure: 30.28"   Gusts: NA
Location:  31.46°N, 87.75°W
Report Text: KGZH 290453Z AUTO 00000KT 10SM CLR 01/M01 A3028 RMK AO2 SLP254 T00111006
Loading
Personal Weather Stations






























Interactive Weather Map New forecast layout! Learn more

10-Day Weather Forecast

Advertisements
Track Severe Weather on mobile